Astley, United Kingdom
Current Conditions -  °F | °C
As of 11:50 AM on Tuesday 21 Oct 2014 (Local Time) from EGCC Reporting Station
Rain Showers Rain Showers  
Wind Chill: 52°   Ceiling: Unl
Heat Index: 52°   Visibility: 6mi
Dew Point: 41°   Wind: 25mph
Humidity: 67%   Direction: 290°WNW
Pressure: 29.59"   Gusts: 39mph
Location:  53.5°N, 2.46°W
Report Text: EGCC 211050Z 29022G34KT 9999 VCSH FEW029CB SCT034 11/05 Q1002 TEMPO SHRA
Loading
Personal Weather Stations






























Interactive Weather Map
Tropical Storm Tracking
New forecast layout! Learn more

10-Day Weather Forecast

Advertisements
Track Severe Weather on mobile